createdAt,value
2022-08-26T00:01:33.252Z,77.79
2022-08-26T00:04:01.712Z,78.29
2022-08-26T00:06:30.263Z,78.21
2022-08-26T00:08:56.875Z,78.71
2022-08-26T00:11:26.605Z,78.19
2022-08-26T00:13:54.995Z,78.16
2022-08-26T00:16:23.668Z,78.78
2022-08-26T00:18:50.693Z,79.07
2022-08-26T00:21:17.314Z,78.82
2022-08-26T00:23:44.338Z,77.95
2022-08-26T00:26:11.391Z,78.18
2022-08-26T00:28:39.472Z,78.61
2022-08-26T00:31:07.472Z,79.35
2022-08-26T00:33:38.225Z,79.92
2022-08-26T00:36:05.946Z,79.98
2022-08-26T00:38:33.000Z,78.69
2022-08-26T00:41:00.440Z,78.99
2022-08-26T00:43:27.336Z,79.08
2022-08-26T00:46:14.234Z,78.32
2022-08-26T00:48:44.001Z,78.61
2022-08-26T00:51:22.132Z,79.16
2022-08-26T00:53:57.763Z,79.53
2022-08-26T00:56:38.272Z,80.53
2022-08-26T00:59:08.136Z,80.73
2022-08-26T01:01:35.566Z,80.51
2022-08-26T01:04:02.683Z,81.25
2022-08-26T01:06:30.016Z,81.61
2022-08-26T01:08:57.781Z,81.47
2022-08-26T01:11:25.282Z,81.58
2022-08-26T01:13:58.677Z,82.10
2022-08-26T01:16:25.776Z,81.08
2022-08-26T01:18:59.787Z,81.25
2022-08-26T01:21:29.442Z,80.83
2022-08-26T01:23:58.114Z,81.22
2022-08-26T01:26:29.991Z,81.67
2022-08-26T01:29:00.204Z,81.29
2022-08-26T01:31:38.341Z,82.07
2022-08-26T01:34:12.389Z,81.64
2022-08-26T01:36:39.896Z,82.34
2022-08-26T01:39:07.854Z,82.37
2022-08-26T01:41:36.508Z,82.19
2022-08-26T01:44:06.695Z,82.21
2022-08-26T01:46:37.017Z,82.50
2022-08-26T01:49:06.784Z,82.93
2022-08-26T01:51:37.706Z,82.75
2022-08-26T01:54:07.222Z,82.89
2022-08-26T01:56:38.959Z,83.17
2022-08-26T01:59:11.309Z,82.12
2022-08-26T02:01:39.253Z,82.19
2022-08-26T02:04:05.786Z,82.73
2022-08-26T02:06:32.870Z,83.17
2022-08-26T02:09:02.806Z,82.91
2022-08-26T02:11:31.130Z,83.09
2022-08-26T02:14:03.771Z,83.71
2022-08-26T02:16:37.165Z,82.57
2022-08-26T02:19:05.890Z,82.99
2022-08-26T02:21:35.296Z,82.29
2022-08-26T02:24:10.765Z,82.41
2022-08-26T02:26:39.603Z,82.99
2022-08-26T02:29:10.844Z,83.59
2022-08-26T02:31:38.209Z,84.39
2022-08-26T02:34:10.752Z,83.79
2022-08-26T02:36:38.535Z,83.40
2022-08-26T02:39:06.782Z,83.58
2022-08-26T02:41:34.282Z,83.23
2022-08-26T02:44:00.937Z,83.72
2022-08-26T02:46:29.902Z,83.54
2022-08-26T02:48:57.625Z,83.77
2022-08-26T02:51:24.962Z,84.07
2022-08-26T02:53:51.602Z,84.25
2022-08-26T02:56:18.326Z,84.45
2022-08-26T02:58:44.887Z,84.07
2022-08-26T03:01:27.124Z,82.97
2022-08-26T03:03:54.761Z,83.01
2022-08-26T03:06:22.131Z,83.42
2022-08-26T03:08:49.703Z,83.71
2022-08-26T03:11:16.871Z,83.96
2022-08-26T03:13:43.424Z,83.84
2022-08-26T03:16:10.167Z,84.30
2022-08-26T03:18:37.162Z,84.86
2022-08-26T03:21:12.889Z,83.38
2022-08-26T03:23:41.725Z,83.18
2022-08-26T03:26:11.425Z,84.04
2022-08-26T03:28:58.118Z,84.31
2022-08-26T03:31:25.434Z,84.57
2022-08-26T03:33:52.470Z,84.71
2022-08-26T03:36:21.038Z,83.98
2022-08-26T03:38:48.032Z,84.15
2022-08-26T03:41:15.437Z,84.94
2022-08-26T03:43:41.976Z,84.52
2022-08-26T03:46:12.016Z,84.52
2022-08-26T03:48:39.757Z,84.56
2022-08-26T03:51:13.234Z,84.97
2022-08-26T03:53:39.854Z,84.91
2022-08-26T03:56:06.862Z,84.90
2022-08-26T03:58:33.741Z,84.96
2022-08-26T04:01:00.498Z,85.12
2022-08-26T04:03:46.178Z,85.03
2022-08-26T04:06:13.283Z,85.29
2022-08-26T04:08:40.107Z,85.44
2022-08-26T04:11:07.108Z,85.05
2022-08-26T04:13:34.360Z,85.38
2022-08-26T04:16:00.993Z,83.97
2022-08-26T04:18:33.026Z,84.90
2022-08-26T04:21:08.074Z,85.40
2022-08-26T04:23:46.898Z,86.60
2022-08-26T04:26:14.007Z,87.23
2022-08-26T04:28:40.542Z,87.26
2022-08-26T04:31:11.182Z,87.27
2022-08-26T04:33:41.623Z,88.06
2022-08-26T04:36:09.069Z,88.17
2022-08-26T04:38:35.798Z,87.58
2022-08-26T04:41:03.417Z,87.58
2022-08-26T04:43:32.277Z,87.15
2022-08-26T04:46:05.136Z,87.06
2022-08-26T04:48:33.162Z,87.09
2022-08-26T04:51:00.021Z,86.91
2022-08-26T04:53:28.286Z,87.69
2022-08-26T04:55:55.267Z,86.33
2022-08-26T04:58:24.509Z,87.83
2022-08-26T05:00:54.016Z,86.68
2022-08-26T05:03:21.519Z,85.32
2022-08-26T05:05:52.386Z,84.61
2022-08-26T05:08:21.215Z,85.60
2022-08-26T05:10:51.268Z,85.30
2022-08-26T05:13:20.571Z,85.09
2022-08-26T05:15:48.492Z,84.86
2022-08-26T05:18:17.692Z,84.61
2022-08-26T05:20:49.682Z,84.26
2022-08-26T05:23:18.142Z,84.10
2022-08-26T05:25:47.481Z,83.94
2022-08-26T05:28:16.065Z,83.68
2022-08-26T05:30:42.858Z,83.50
2022-08-26T05:33:12.116Z,83.09
2022-08-26T05:35:39.306Z,82.65
2022-08-26T05:38:12.930Z,82.88
2022-08-26T05:40:45.782Z,82.65
2022-08-26T05:43:13.568Z,82.83
2022-08-26T05:45:46.325Z,82.99
2022-08-26T05:48:14.735Z,83.91
2022-08-26T05:50:48.410Z,82.88
2022-08-26T05:53:17.713Z,81.99
2022-08-26T05:55:47.420Z,81.99
2022-08-26T05:58:15.374Z,82.54
2022-08-26T06:00:44.648Z,82.30
2022-08-26T06:03:11.512Z,82.39
2022-08-26T06:05:40.118Z,81.62
2022-08-26T06:08:16.477Z,81.32
2022-08-26T06:10:48.678Z,80.95
2022-08-26T06:13:19.625Z,81.15
2022-08-26T06:15:48.818Z,79.98
2022-08-26T06:18:18.770Z,79.17
2022-08-26T06:20:56.930Z,77.36
2022-08-26T06:23:42.902Z,75.93
2022-08-26T06:26:11.196Z,75.71
2022-08-26T06:28:37.882Z,75.04
2022-08-26T06:31:05.707Z,73.25
2022-08-26T06:33:32.572Z,73.02
2022-08-26T06:36:01.132Z,72.64
2022-08-26T06:38:28.112Z,70.87
2022-08-26T06:40:54.964Z,71.37
2022-08-26T06:43:24.671Z,72.98
2022-08-26T06:45:52.479Z,71.84
2022-08-26T06:48:20.522Z,71.04
2022-08-26T06:50:48.043Z,70.33
2022-08-26T06:53:17.090Z,71.36
2022-08-26T06:55:46.158Z,70.06
2022-08-26T06:58:14.249Z,67.89
2022-08-26T07:00:41.671Z,67.05
2022-08-26T07:03:14.207Z,66.54
2022-08-26T07:05:40.791Z,66.49
2022-08-26T07:08:07.577Z,66.68
2022-08-26T07:10:35.664Z,66.85
2022-08-26T07:13:02.789Z,64.39
2022-08-26T07:15:31.506Z,61.57
2022-08-26T07:17:58.269Z,59.80
2022-08-26T07:20:25.032Z,60.05
2022-08-26T07:22:51.661Z,60.05
2022-08-26T07:25:19.313Z,58.98
2022-08-26T07:27:46.859Z,58.71
2022-08-26T07:30:20.916Z,60.92
2022-08-26T07:32:47.609Z,61.66
2022-08-26T07:35:14.828Z,61.62
2022-08-26T07:37:42.490Z,57.27
2022-08-26T07:40:09.563Z,56.29
2022-08-26T07:42:36.151Z,56.00
2022-08-26T07:45:02.796Z,56.09
2022-08-26T07:47:29.488Z,56.33
2022-08-26T07:49:57.516Z,56.78
2022-08-26T07:52:27.557Z,55.88
2022-08-26T07:54:56.506Z,55.51
2022-08-26T07:57:24.236Z,54.77
2022-08-26T07:59:51.405Z,54.40
2022-08-26T08:02:20.677Z,55.55
2022-08-26T08:04:47.550Z,55.36
2022-08-26T08:07:14.470Z,53.83
2022-08-26T08:09:41.075Z,55.05
2022-08-26T08:12:07.761Z,55.41
2022-08-26T08:14:36.536Z,55.62
2022-08-26T08:17:04.188Z,55.08
2022-08-26T08:19:38.940Z,54.32
2022-08-26T08:22:06.792Z,53.91
2022-08-26T08:24:44.303Z,52.55
2022-08-26T08:27:11.052Z,51.90
2022-08-26T08:29:38.663Z,50.42
2022-08-26T08:32:05.603Z,49.58
2022-08-26T08:34:38.326Z,49.43
2022-08-26T08:37:08.610Z,49.30
2022-08-26T08:39:37.206Z,48.27
2022-08-26T08:42:41.556Z,49.51
2022-08-26T08:45:12.784Z,48.56
2022-08-26T08:47:43.090Z,47.94
2022-08-26T08:50:21.737Z,48.10
2022-08-26T08:53:02.261Z,46.99
2022-08-26T08:55:44.264Z,47.07
2022-08-26T08:58:29.115Z,46.31
2022-08-26T09:01:04.704Z,45.49
2022-08-26T09:04:13.535Z,44.63
2022-08-26T09:06:45.690Z,45.96
2022-08-26T09:09:23.294Z,45.29
2022-08-26T09:11:50.077Z,46.17
2022-08-26T09:14:16.870Z,46.07
2022-08-26T09:16:51.880Z,45.77
2022-08-26T09:19:33.695Z,45.79
2022-08-26T09:22:04.635Z,46.60
2022-08-26T09:24:40.885Z,43.97
2022-08-26T09:27:09.219Z,43.46
2022-08-26T09:29:43.834Z,44.30
2022-08-26T09:32:25.303Z,43.07
2022-08-26T09:34:53.647Z,42.40
2022-08-26T09:37:42.450Z,45.12
2022-08-26T09:40:34.977Z,43.52
2022-08-26T09:43:09.839Z,40.78
2022-08-26T09:45:38.918Z,42.22
2022-08-26T09:48:07.205Z,43.72
2022-08-26T09:50:51.399Z,42.12
2022-08-26T09:53:25.328Z,43.27
2022-08-26T09:56:34.877Z,41.67
2022-08-26T09:59:03.345Z,41.93
2022-08-26T10:01:44.320Z,43.15
2022-08-26T10:04:20.829Z,41.20
2022-08-26T10:07:03.861Z,42.22
2022-08-26T10:09:35.624Z,43.42
2022-08-26T10:12:10.947Z,42.26
2022-08-26T10:14:51.168Z,41.51
2022-08-26T10:17:40.276Z,42.01
2022-08-26T10:20:24.787Z,41.90
2022-08-26T10:23:05.267Z,42.02
2022-08-26T10:25:38.170Z,44.32
2022-08-26T10:28:30.227Z,43.70
2022-08-26T10:31:04.589Z,45.20
2022-08-26T10:33:31.673Z,44.31
2022-08-26T10:36:01.903Z,43.59
2022-08-26T10:38:46.874Z,43.81
2022-08-26T10:41:17.035Z,44.69
2022-08-26T10:43:56.412Z,43.08
2022-08-26T10:46:27.092Z,42.05
2022-08-26T10:49:03.221Z,42.89
2022-08-26T10:51:38.604Z,44.19
2022-08-26T10:54:19.772Z,44.21
2022-08-26T10:56:59.643Z,44.23
2022-08-26T10:59:45.884Z,42.14
2022-08-26T11:02:33.634Z,41.57
2022-08-26T11:05:04.531Z,42.98
2022-08-26T11:07:45.835Z,44.04
2022-08-26T11:10:21.486Z,43.85
2022-08-26T11:12:55.956Z,44.24
2022-08-26T11:15:28.092Z,44.33
2022-08-26T11:17:59.580Z,43.59
2022-08-26T11:20:29.948Z,43.66
2022-08-26T11:23:17.216Z,44.55
2022-08-26T11:25:55.909Z,44.45
2022-08-26T11:28:48.390Z,46.38
2022-08-26T11:31:27.057Z,49.04
2022-08-26T11:34:00.481Z,45.40
2022-08-26T11:36:35.866Z,43.86
2022-08-26T11:39:25.537Z,43.66
2022-08-26T11:41:55.542Z,43.91
2022-08-26T11:44:38.199Z,45.78
2022-08-26T11:47:05.761Z,43.38
2022-08-26T11:49:38.191Z,42.16
2022-08-26T11:52:22.763Z,39.49
2022-08-26T11:55:12.105Z,42.03
2022-08-26T11:57:49.799Z,43.34
2022-08-26T12:00:24.042Z,44.26
2022-08-26T12:02:52.600Z,42.22
2022-08-26T12:05:30.986Z,42.40
2022-08-26T12:08:02.974Z,41.75
2022-08-26T12:10:32.790Z,39.63
2022-08-26T12:13:02.080Z,39.11
2022-08-26T12:15:32.023Z,40.24
2022-08-26T12:18:17.742Z,38.08
2022-08-26T12:20:48.491Z,37.11
2022-08-26T12:23:36.709Z,37.87
2022-08-26T12:26:21.192Z,38.35
2022-08-26T12:28:49.615Z,38.81
2022-08-26T12:31:29.234Z,37.65
2022-08-26T12:33:59.205Z,40.31
2022-08-26T12:36:43.045Z,40.17
2022-08-26T12:39:14.490Z,40.50
2022-08-26T12:41:45.576Z,41.00
2022-08-26T12:44:54.349Z,44.69
2022-08-26T12:47:41.927Z,43.87
2022-08-26T12:50:10.313Z,45.34
2022-08-26T12:53:01.858Z,47.24
2022-08-26T12:55:31.544Z,46.85
2022-08-26T12:58:16.099Z,47.12
2022-08-26T13:00:49.868Z,48.72
2022-08-26T13:03:35.151Z,49.05
2022-08-26T13:06:23.429Z,48.86
2022-08-26T13:09:09.017Z,49.63
2022-08-26T13:11:41.560Z,49.46
2022-08-26T13:14:21.029Z,48.83
2022-08-26T13:16:51.004Z,48.66
2022-08-26T13:19:20.660Z,48.27
2022-08-26T13:21:49.746Z,49.86
2022-08-26T13:24:31.019Z,49.49
2022-08-26T13:26:57.834Z,49.93
2022-08-26T13:29:24.574Z,50.36
2022-08-26T13:31:51.946Z,50.09
2022-08-26T13:34:21.897Z,49.89
2022-08-26T13:36:50.609Z,49.48
2022-08-26T13:39:17.956Z,49.37
2022-08-26T13:41:44.661Z,49.49
2022-08-26T13:44:11.424Z,49.85
2022-08-26T13:46:38.238Z,50.03
2022-08-26T13:49:05.596Z,49.36
2022-08-26T13:51:32.719Z,51.29
2022-08-26T13:54:00.302Z,52.35
2022-08-26T13:56:29.752Z,53.07
2022-08-26T13:58:57.712Z,52.73
2022-08-26T14:01:25.050Z,54.00
2022-08-26T14:03:52.010Z,54.47
2022-08-26T14:06:19.371Z,52.73
2022-08-26T14:08:47.007Z,51.74
2022-08-26T14:11:13.675Z,50.83
2022-08-26T14:13:40.487Z,49.93
2022-08-26T14:16:24.408Z,50.03
2022-08-26T14:18:51.349Z,50.34
2022-08-26T14:21:18.927Z,49.57
2022-08-26T14:23:45.564Z,50.81
2022-08-26T14:26:14.301Z,51.12
2022-08-26T14:28:56.342Z,53.41
2022-08-26T14:31:24.040Z,53.37
2022-08-26T14:33:50.901Z,53.47
2022-08-26T14:36:30.936Z,53.81
2022-08-26T14:39:04.870Z,54.92
2022-08-26T14:41:33.089Z,55.33
2022-08-26T14:44:06.214Z,55.71
2022-08-26T14:46:39.396Z,55.87
2022-08-26T14:49:09.869Z,55.58
2022-08-26T14:51:37.295Z,57.30
2022-08-26T14:54:12.857Z,57.54
2022-08-26T14:57:05.556Z,57.04
2022-08-26T14:59:35.438Z,57.09
2022-08-26T15:02:02.438Z,56.79
2022-08-26T15:04:29.393Z,58.42
2022-08-26T15:06:58.789Z,58.59
2022-08-26T15:09:26.679Z,59.37
2022-08-26T15:11:53.537Z,59.05
2022-08-26T15:14:21.873Z,60.06
2022-08-26T15:16:54.041Z,60.19
2022-08-26T15:19:22.656Z,60.04
2022-08-26T15:21:49.415Z,59.50
2022-08-26T15:24:19.609Z,60.09
2022-08-26T15:26:46.906Z,60.41
2022-08-26T15:29:14.248Z,60.88
2022-08-26T15:31:41.060Z,59.55
2022-08-26T15:34:13.318Z,60.55
2022-08-26T15:36:45.004Z,61.18
2022-08-26T15:39:11.952Z,61.71
2022-08-26T15:41:38.759Z,61.32
2022-08-26T15:44:07.473Z,61.35
2022-08-26T15:46:35.290Z,59.93
2022-08-26T15:49:03.426Z,59.79
2022-08-26T15:51:33.460Z,59.47
2022-08-26T15:54:02.481Z,59.85
2022-08-26T15:56:34.819Z,58.52
2022-08-26T15:59:03.406Z,58.81
2022-08-26T16:01:32.129Z,58.48
2022-08-26T16:03:59.764Z,58.87
2022-08-26T16:06:30.683Z,58.63
2022-08-26T16:08:57.718Z,59.36
2022-08-26T16:11:25.679Z,58.80
2022-08-26T16:13:52.667Z,58.70
2022-08-26T16:16:19.859Z,58.09
2022-08-26T16:18:46.715Z,60.00
2022-08-26T16:21:19.498Z,60.74
2022-08-26T16:23:47.001Z,62.12
2022-08-26T16:26:17.454Z,63.80
2022-08-26T16:28:44.362Z,65.17
2022-08-26T16:31:11.822Z,65.66
2022-08-26T16:33:38.601Z,64.83
2022-08-26T16:36:06.839Z,65.33
2022-08-26T16:38:33.827Z,66.57
2022-08-26T16:41:01.256Z,66.65
2022-08-26T16:43:28.540Z,67.67
2022-08-26T16:45:55.226Z,67.06
2022-08-26T16:48:21.870Z,69.54
2022-08-26T16:50:49.419Z,71.05
2022-08-26T16:53:16.231Z,70.60
2022-08-26T16:55:50.234Z,70.40
2022-08-26T16:58:17.730Z,72.13
2022-08-26T17:00:45.352Z,69.74
2022-08-26T17:03:12.442Z,70.58
2022-08-26T17:05:40.205Z,70.42
2022-08-26T17:08:07.244Z,72.33
2022-08-26T17:10:34.135Z,71.91
2022-08-26T17:13:00.870Z,72.31
2022-08-26T17:15:27.726Z,71.15
2022-08-26T17:17:54.978Z,71.42
2022-08-26T17:20:23.370Z,72.58
2022-08-26T17:22:51.647Z,72.69
2022-08-26T17:25:26.067Z,74.02
2022-08-26T17:27:53.188Z,73.08
2022-08-26T17:30:21.205Z,73.77
2022-08-26T17:32:48.365Z,73.80
2022-08-26T17:35:15.953Z,73.85
2022-08-26T17:37:43.201Z,74.15
2022-08-26T17:40:12.713Z,73.80
2022-08-26T17:42:40.216Z,73.51
2022-08-26T17:45:08.345Z,74.31
2022-08-26T17:47:35.108Z,76.23
2022-08-26T17:50:02.663Z,76.60
2022-08-26T17:52:30.439Z,76.46
2022-08-26T17:54:57.491Z,77.73
2022-08-26T17:57:25.316Z,76.44
2022-08-26T17:59:52.839Z,76.66
2022-08-26T18:02:21.155Z,75.95
2022-08-26T18:04:48.170Z,76.54
2022-08-26T18:07:15.538Z,75.58
2022-08-26T18:09:42.289Z,74.97
2022-08-26T18:12:09.531Z,73.98
2022-08-26T18:14:36.188Z,74.39
2022-08-26T18:17:03.695Z,73.56
2022-08-26T18:19:31.391Z,75.02
2022-08-26T18:21:58.407Z,73.37
2022-08-26T18:24:25.123Z,74.81
2022-08-26T18:26:51.721Z,73.80
2022-08-26T18:29:19.742Z,72.83
2022-08-26T18:31:46.629Z,73.31
2022-08-26T18:34:15.453Z,71.76
2022-08-26T18:36:43.752Z,71.67
2022-08-26T18:39:11.697Z,71.06
2022-08-26T18:41:46.841Z,71.41
2022-08-26T18:44:16.190Z,72.69
2022-08-26T18:46:43.834Z,72.90
2022-08-26T18:49:15.146Z,72.74
2022-08-26T18:51:43.038Z,72.96
2022-08-26T18:54:10.005Z,73.43
2022-08-26T18:56:38.050Z,73.02
2022-08-26T18:59:07.566Z,73.30
2022-08-26T19:01:35.814Z,74.33
2022-08-26T19:04:05.267Z,74.55
2022-08-26T19:06:33.329Z,74.57
2022-08-26T19:09:00.320Z,74.72
2022-08-26T19:11:32.362Z,75.06
2022-08-26T19:14:07.988Z,74.87
2022-08-26T19:16:35.471Z,74.54
2022-08-26T19:19:02.170Z,75.14
2022-08-26T19:21:29.789Z,75.13
2022-08-26T19:24:00.987Z,75.24
2022-08-26T19:26:28.519Z,75.51
2022-08-26T19:28:55.413Z,75.54
2022-08-26T19:31:22.324Z,75.51
2022-08-26T19:33:49.277Z,75.66
2022-08-26T19:36:23.702Z,75.86
2022-08-26T19:38:50.794Z,76.35
2022-08-26T19:41:20.521Z,76.20
2022-08-26T19:43:47.545Z,77.15
2022-08-26T19:46:19.975Z,77.41
2022-08-26T19:48:47.978Z,76.50
2022-08-26T19:51:21.101Z,77.29
2022-08-26T19:53:48.927Z,76.72
2022-08-26T19:56:16.398Z,76.25
2022-08-26T19:58:43.759Z,77.17
2022-08-26T20:01:11.104Z,78.51
2022-08-26T20:03:37.818Z,78.20
2022-08-26T20:06:07.210Z,78.78
2022-08-26T20:08:35.704Z,78.93
2022-08-26T20:11:06.022Z,79.68
2022-08-26T20:13:33.365Z,79.35
2022-08-26T20:15:59.967Z,80.80
2022-08-26T20:18:45.190Z,80.78
2022-08-26T20:21:28.221Z,80.59
2022-08-26T20:24:16.836Z,80.74
2022-08-26T20:26:45.018Z,80.80
2022-08-26T20:29:15.074Z,80.65
2022-08-26T20:31:42.385Z,79.85
2022-08-26T20:34:09.073Z,80.26
2022-08-26T20:36:38.348Z,80.77
2022-08-26T20:39:05.400Z,81.03
2022-08-26T20:41:32.210Z,80.62
2022-08-26T20:43:59.389Z,81.26
2022-08-26T20:46:26.291Z,80.77
2022-08-26T20:48:54.089Z,81.03
2022-08-26T20:51:23.582Z,80.81
2022-08-26T20:53:50.881Z,80.63
2022-08-26T20:56:23.628Z,80.60
2022-08-26T20:58:55.370Z,80.32
2022-08-26T21:01:25.337Z,80.86
2022-08-26T21:03:53.925Z,80.87
2022-08-26T21:06:20.853Z,81.16
2022-08-26T21:08:48.413Z,80.98
2022-08-26T21:11:15.731Z,81.19
2022-08-26T21:14:01.587Z,80.38
2022-08-26T21:16:29.245Z,79.82
2022-08-26T21:18:56.230Z,80.10
2022-08-26T21:21:25.170Z,80.28
2022-08-26T21:23:52.144Z,80.68
2022-08-26T21:26:18.965Z,80.24
2022-08-26T21:28:46.407Z,79.96
2022-08-26T21:31:15.587Z,79.56
2022-08-26T21:33:42.614Z,80.02
2022-08-26T21:36:10.310Z,80.55
2022-08-26T21:38:37.476Z,80.67
2022-08-26T21:41:07.712Z,81.37
2022-08-26T21:43:36.772Z,81.18
2022-08-26T21:46:14.616Z,81.25
2022-08-26T21:48:50.035Z,81.72
2022-08-26T21:51:20.156Z,82.42
2022-08-26T21:53:46.978Z,82.31
2022-08-26T21:56:15.604Z,81.96
2022-08-26T21:58:42.321Z,82.93
2022-08-26T22:01:13.224Z,83.20
2022-08-26T22:03:46.716Z,83.74
2022-08-26T22:06:15.654Z,83.53
2022-08-26T22:08:42.245Z,83.79
2022-08-26T22:11:09.756Z,84.45
2022-08-26T22:13:38.658Z,84.27
2022-08-26T22:16:06.093Z,84.95
2022-08-26T22:18:33.690Z,85.18
2022-08-26T22:21:04.364Z,85.03
2022-08-26T22:23:31.060Z,85.03
2022-08-26T22:25:58.657Z,84.82
2022-08-26T22:28:26.141Z,84.89
2022-08-26T22:30:53.084Z,84.86
2022-08-26T22:33:19.865Z,84.26
2022-08-26T22:35:49.053Z,84.31
2022-08-26T22:38:16.557Z,84.59
2022-08-26T22:40:46.507Z,84.71
2022-08-26T22:43:13.676Z,85.00
2022-08-26T22:45:43.239Z,84.84
2022-08-26T22:48:12.189Z,85.08
2022-08-26T22:50:38.893Z,85.46
2022-08-26T22:53:05.485Z,84.58
2022-08-26T22:55:32.060Z,85.09
2022-08-26T22:57:59.115Z,84.69
2022-08-26T23:00:31.964Z,84.83
2022-08-26T23:03:00.667Z,85.09
2022-08-26T23:05:27.698Z,82.20
2022-08-26T23:07:56.428Z,80.40
2022-08-26T23:10:23.895Z,79.35
2022-08-26T23:12:52.627Z,77.84
2022-08-26T23:15:21.073Z,78.79
2022-08-26T23:17:48.539Z,78.65
2022-08-26T23:20:27.559Z,78.64
2022-08-26T23:22:55.351Z,78.72
2022-08-26T23:25:22.862Z,79.99
2022-08-26T23:27:51.550Z,80.07
2022-08-26T23:30:22.449Z,80.70
2022-08-26T23:32:49.870Z,80.78
2022-08-26T23:35:20.557Z,81.15
2022-08-26T23:37:51.616Z,81.54
2022-08-26T23:40:25.506Z,81.09
2022-08-26T23:42:54.498Z,80.79
2022-08-26T23:45:21.672Z,81.46
2022-08-26T23:47:50.627Z,80.87
2022-08-26T23:50:19.964Z,80.81
2022-08-26T23:53:05.613Z,80.04
2022-08-26T23:55:39.356Z,80.77
2022-08-26T23:58:06.917Z,80.08
